createdAt,value
2023-07-24T03:52:01.796Z,50.75
2023-07-24T03:54:29.259Z,48.10
2023-07-24T03:56:56.554Z,53.85
2023-07-24T03:59:24.257Z,56.20
2023-07-24T04:01:51.609Z,45.42
2023-07-24T04:04:19.465Z,48.42
2023-07-24T04:06:47.466Z,54.75
2023-07-24T04:09:17.636Z,51.83
2023-07-24T04:11:46.865Z,61.97
2023-07-24T04:14:14.618Z,55.63
2023-07-24T04:16:41.958Z,55.60
2023-07-24T04:19:09.849Z,50.70
2023-07-24T04:21:37.360Z,53.53
2023-07-24T04:24:05.332Z,57.67
2023-07-24T04:26:34.412Z,60.70
2023-07-24T04:29:02.936Z,49.03
2023-07-24T04:31:30.845Z,48.50
2023-07-24T04:33:58.232Z,45.17
2023-07-24T04:36:26.015Z,49.08
2023-07-24T04:38:53.818Z,48.50
2023-07-24T04:41:21.730Z,57.72
2023-07-24T04:43:49.071Z,49.97
2023-07-24T04:46:16.919Z,45.05
2023-07-24T04:48:44.716Z,44.92
2023-07-24T04:51:12.195Z,40.95
2023-07-24T04:53:40.585Z,43.28
2023-07-24T04:56:08.288Z,47.42
2023-07-24T04:58:35.674Z,46.75
2023-07-24T05:01:05.306Z,49.03
2023-07-24T05:03:33.643Z,46.15
2023-07-24T05:06:00.960Z,43.50
2023-07-24T05:08:29.323Z,53.25
2023-07-24T05:11:00.089Z,55.75
2023-07-24T05:13:27.849Z,54.72
2023-07-24T05:15:55.795Z,55.15
2023-07-24T05:18:23.435Z,46.08
2023-07-24T05:20:52.590Z,48.15
2023-07-24T05:23:20.689Z,50.08
2023-07-24T05:25:48.119Z,42.92
2023-07-24T05:28:15.480Z,46.50
2023-07-24T05:30:42.850Z,49.50
2023-07-24T05:33:10.627Z,43.60
2023-07-24T05:35:37.998Z,51.40
2023-07-24T05:38:05.866Z,52.83
2023-07-24T05:40:33.588Z,52.22
2023-07-24T05:43:00.871Z,48.50
2023-07-24T05:45:28.674Z,51.63
2023-07-24T05:47:56.060Z,45.35
2023-07-24T05:50:23.447Z,46.75
2023-07-24T05:52:50.811Z,64.50
2023-07-24T05:55:18.208Z,49.45
2023-07-24T05:57:46.531Z,43.97
2023-07-24T06:00:14.049Z,44.10
2023-07-24T06:02:43.839Z,49.45
2023-07-24T06:05:11.378Z,48.92
2023-07-24T06:07:38.667Z,47.65
2023-07-24T06:10:06.537Z,52.85
2023-07-24T06:12:33.877Z,43.58
2023-07-24T06:15:01.264Z,43.88
2023-07-24T06:17:28.605Z,44.97
2023-07-24T06:19:56.395Z,49.20
2023-07-24T06:22:24.714Z,43.22
2023-07-24T06:24:52.648Z,40.42
2023-07-24T06:27:20.068Z,38.20
2023-07-24T06:29:49.440Z,39.70
2023-07-24T06:32:18.643Z,42.05
2023-07-24T06:34:46.767Z,40.10
2023-07-24T06:37:22.323Z,37.42
2023-07-24T06:39:50.323Z,35.92
2023-07-24T06:42:18.268Z,41.72
2023-07-24T06:44:45.643Z,42.63
2023-07-24T06:47:13.003Z,42.75
2023-07-24T06:49:40.430Z,32.30
2023-07-24T06:52:08.022Z,38.20
2023-07-24T06:54:35.639Z,32.22
2023-07-24T06:57:03.572Z,30.98
2023-07-24T06:59:30.912Z,32.97
2023-07-24T07:01:58.716Z,35.08
2023-07-24T07:04:26.040Z,33.30
2023-07-24T07:06:53.789Z,27.70
2023-07-24T07:09:21.596Z,28.33
2023-07-24T07:11:48.915Z,36.92
2023-07-24T07:14:16.387Z,29.88
2023-07-24T07:16:43.751Z,32.75
2023-07-24T07:19:11.719Z,35.65
2023-07-24T07:21:39.088Z,27.67
2023-07-24T07:24:06.653Z,38.97
2023-07-24T07:26:34.353Z,31.70
2023-07-24T07:29:01.778Z,28.75
2023-07-24T07:31:30.144Z,28.25
2023-07-24T07:33:57.521Z,32.03
2023-07-24T07:36:25.204Z,33.30
2023-07-24T07:38:53.428Z,30.83
2023-07-24T07:41:20.897Z,32.40
2023-07-24T07:43:49.108Z,27.98
2023-07-24T07:46:16.803Z,29.10
2023-07-24T07:48:44.256Z,32.17
2023-07-24T07:51:11.559Z,27.75
2023-07-24T07:53:39.598Z,26.17
2023-07-24T07:56:07.215Z,30.40
2023-07-24T07:58:35.129Z,28.60
2023-07-24T08:01:06.423Z,28.90
2023-07-24T08:03:35.425Z,29.02
2023-07-24T08:06:03.401Z,24.75
2023-07-24T08:08:30.770Z,30.25
2023-07-24T08:10:58.226Z,23.83
2023-07-24T08:13:25.608Z,35.17
2023-07-24T08:15:53.307Z,31.77
2023-07-24T08:18:21.037Z,37.53
2023-07-24T08:20:48.526Z,29.42
2023-07-24T08:23:15.990Z,31.25
2023-07-24T08:25:56.955Z,26.40
2023-07-24T08:28:24.657Z,32.05
2023-07-24T08:30:59.235Z,32.53
2023-07-24T08:33:26.687Z,29.60
2023-07-24T08:36:20.374Z,31.13
2023-07-24T08:38:48.681Z,22.95
2023-07-24T08:41:16.116Z,27.58
2023-07-24T08:43:45.112Z,29.38
2023-07-24T08:46:12.685Z,25.83
2023-07-24T08:48:42.724Z,25.80
2023-07-24T08:51:15.652Z,32.10
2023-07-24T08:53:44.733Z,33.78
2023-07-24T08:56:13.844Z,29.83
2023-07-24T08:58:41.695Z,29.05
2023-07-24T09:01:11.138Z,31.42
2023-07-24T09:03:39.285Z,28.42
2023-07-24T09:06:10.830Z,26.63
2023-07-24T09:08:41.261Z,26.30
2023-07-24T09:11:10.758Z,31.25
2023-07-24T09:13:39.469Z,25.95
2023-07-24T09:16:07.664Z,32.90
2023-07-24T09:18:42.522Z,30.95
2023-07-24T09:21:13.491Z,23.80
2023-07-24T09:26:09.647Z,27.30
2023-07-24T09:28:38.080Z,39.60
2023-07-24T09:31:06.198Z,79.80
2023-07-24T09:33:41.774Z,29.33
2023-07-24T09:36:10.294Z,37.85
2023-07-24T09:38:39.316Z,26.33
2023-07-24T09:41:07.754Z,27.05
2023-07-24T09:43:40.633Z,34.10
2023-07-24T09:46:10.392Z,35.05
2023-07-24T09:51:13.952Z,29.60
2023-07-24T09:53:53.239Z,43.10
2023-07-24T09:56:35.045Z,37.05
2023-07-24T09:59:13.458Z,29.15
2023-07-24T10:01:41.999Z,41.95
2023-07-24T10:04:11.287Z,32.55
2023-07-24T10:06:39.467Z,35.50
2023-07-24T10:09:08.686Z,39.38
2023-07-24T10:11:37.708Z,38.50
2023-07-24T10:14:06.052Z,27.50
2023-07-24T10:16:34.725Z,31.92
2023-07-24T10:19:02.631Z,32.13
2023-07-24T10:21:30.422Z,38.15
2023-07-24T10:24:01.849Z,34.13
2023-07-24T10:28:56.375Z,35.40
2023-07-24T10:31:30.187Z,35.75
2023-07-24T10:34:06.470Z,34.28
2023-07-24T10:36:39.405Z,45.30
2023-07-24T10:39:16.097Z,45.03
2023-07-24T10:41:46.066Z,41.78
2023-07-24T10:44:13.755Z,40.00
2023-07-24T10:46:45.881Z,41.72
2023-07-24T10:49:13.904Z,46.03
2023-07-24T10:51:41.264Z,38.03
2023-07-24T10:54:09.106Z,40.15
2023-07-24T10:56:37.768Z,49.38
2023-07-24T10:59:05.888Z,36.08
2023-07-24T11:01:35.081Z,34.35
2023-07-24T11:04:03.861Z,39.33
2023-07-24T11:06:31.350Z,33.20
2023-07-24T11:09:00.591Z,40.30
2023-07-24T11:11:33.882Z,37.65
2023-07-24T11:14:04.011Z,35.25
2023-07-24T11:16:34.318Z,38.97
2023-07-24T11:19:02.599Z,37.45
2023-07-24T11:21:31.233Z,33.40
2023-07-24T11:23:59.854Z,38.85
2023-07-24T11:26:29.043Z,42.47
2023-07-24T11:28:56.841Z,36.35
2023-07-24T11:31:24.733Z,103.45
2023-07-24T11:33:54.088Z,33.90
2023-07-24T11:36:22.673Z,41.35
2023-07-24T11:38:50.742Z,41.00
2023-07-24T11:41:19.225Z,38.53
2023-07-24T11:43:48.677Z,42.92
2023-07-24T11:46:25.741Z,37.88
2023-07-24T11:48:56.741Z,41.33
2023-07-24T11:54:07.838Z,33.00
2023-07-24T11:56:35.704Z,30.95
2023-07-24T11:59:16.667Z,36.78
2023-07-24T12:01:51.196Z,31.63
2023-07-24T12:04:19.472Z,33.80
2023-07-24T12:06:47.596Z,48.38
2023-07-24T12:09:15.334Z,31.02
2023-07-24T12:11:46.638Z,31.92
2023-07-24T12:14:15.722Z,29.92
2023-07-24T12:16:44.614Z,28.15
2023-07-24T12:19:11.995Z,29.10
2023-07-24T12:21:39.360Z,26.48
2023-07-24T12:24:06.756Z,28.63
2023-07-24T12:26:34.207Z,24.92
2023-07-24T12:29:02.090Z,34.20
2023-07-24T12:31:30.363Z,24.45
2023-07-24T12:33:58.642Z,31.83
2023-07-24T12:36:26.222Z,30.40
2023-07-24T12:38:53.763Z,23.60
2023-07-24T12:41:21.105Z,24.05
2023-07-24T12:43:48.591Z,22.73
2023-07-24T12:46:16.635Z,30.35
2023-07-24T12:48:44.053Z,39.35
2023-07-24T12:51:11.616Z,35.28
2023-07-24T12:53:41.876Z,39.28
2023-07-24T12:56:15.159Z,30.00
2023-07-24T12:58:42.888Z,31.83
2023-07-24T13:01:10.343Z,30.10
2023-07-24T13:03:37.910Z,32.05
2023-07-24T13:06:05.802Z,40.03
2023-07-24T13:08:33.978Z,38.38
2023-07-24T13:11:01.453Z,28.75
2023-07-24T13:13:29.303Z,22.70
2023-07-24T13:16:21.907Z,20.42
2023-07-24T13:18:49.325Z,27.95
2023-07-24T13:21:17.211Z,19.10
2023-07-24T13:23:44.570Z,16.35
2023-07-24T13:26:13.956Z,21.05
2023-07-24T13:28:41.914Z,18.10
2023-07-24T13:31:14.321Z,20.05
2023-07-24T13:33:42.561Z,18.70
2023-07-24T13:36:10.467Z,15.25
2023-07-24T13:38:38.086Z,16.25
2023-07-24T13:41:05.794Z,14.93
2023-07-24T13:43:33.973Z,21.38
2023-07-24T13:46:03.734Z,15.25
2023-07-24T13:48:31.251Z,35.10
2023-07-24T13:50:58.720Z,13.80
2023-07-24T13:53:27.096Z,14.23
2023-07-24T13:55:55.418Z,14.07
2023-07-24T13:58:22.864Z,15.95
2023-07-24T14:00:50.816Z,18.88
2023-07-24T14:03:20.989Z,13.95
2023-07-24T14:05:48.941Z,17.83
2023-07-24T14:08:16.719Z,18.77
2023-07-24T14:10:44.284Z,12.15
2023-07-24T14:13:11.679Z,12.15
2023-07-24T14:15:39.018Z,17.92
2023-07-24T14:18:06.655Z,16.85
2023-07-24T14:20:34.562Z,16.55
2023-07-24T14:23:01.905Z,11.88
2023-07-24T14:25:29.661Z,13.30
2023-07-24T14:27:57.119Z,15.18
2023-07-24T14:30:24.831Z,15.40
2023-07-24T14:32:52.543Z,12.32
2023-07-24T14:35:20.204Z,17.25
2023-07-24T14:37:48.097Z,19.25
2023-07-24T14:40:15.449Z,17.90
2023-07-24T14:42:43.267Z,16.25
2023-07-24T14:45:11.417Z,14.48
2023-07-24T14:47:39.746Z,17.63
2023-07-24T14:50:07.706Z,16.90
2023-07-24T14:52:35.156Z,16.25
2023-07-24T14:55:02.629Z,13.93
2023-07-24T14:57:30.036Z,20.10
2023-07-24T14:59:57.752Z,16.27
2023-07-24T15:02:25.476Z,18.63
2023-07-24T15:04:52.848Z,15.82
2023-07-24T15:07:20.610Z,15.77
2023-07-24T15:09:47.959Z,13.38
2023-07-24T15:12:15.480Z,15.40
2023-07-24T15:14:42.915Z,21.15
2023-07-24T15:17:10.327Z,16.05
2023-07-24T15:19:38.095Z,16.08
2023-07-24T15:22:05.653Z,14.18
2023-07-24T15:24:33.104Z,16.13
2023-07-24T15:27:00.952Z,18.10
2023-07-24T15:29:29.371Z,23.88
2023-07-24T15:31:57.327Z,16.60
2023-07-24T15:34:25.671Z,18.25
2023-07-24T15:36:53.458Z,16.48
2023-07-24T15:39:20.788Z,17.00
2023-07-24T15:41:48.180Z,20.85
2023-07-24T15:44:15.863Z,22.75
2023-07-24T15:46:44.936Z,15.90
2023-07-24T15:49:12.961Z,15.77
2023-07-24T15:51:41.466Z,12.80
2023-07-24T15:54:11.613Z,12.25
2023-07-24T15:56:40.324Z,12.05
2023-07-24T15:59:10.133Z,14.18
2023-07-24T16:01:37.857Z,15.27
2023-07-24T16:04:05.372Z,13.88
2023-07-24T16:06:33.218Z,14.35
2023-07-24T16:09:01.560Z,11.27
2023-07-24T16:11:29.881Z,10.77
2023-07-24T16:13:58.448Z,15.10
2023-07-24T16:16:26.556Z,13.15
2023-07-24T16:19:16.444Z,11.55
2023-07-24T16:21:46.377Z,14.00
2023-07-24T16:24:16.647Z,13.32
2023-07-24T16:26:46.185Z,13.63
2023-07-24T16:29:14.082Z,14.25
2023-07-24T16:31:41.590Z,11.80
2023-07-24T16:34:09.629Z,14.73
2023-07-24T16:36:37.664Z,15.23
2023-07-24T16:39:07.120Z,18.98
2023-07-24T16:41:35.374Z,15.85
2023-07-24T16:44:03.481Z,17.00
2023-07-24T16:46:31.442Z,13.68
2023-07-24T16:48:58.797Z,14.90
2023-07-24T16:51:26.673Z,16.63
2023-07-24T16:53:54.024Z,17.67
2023-07-24T16:56:21.316Z,15.18
2023-07-24T16:58:48.691Z,21.33
2023-07-24T17:01:16.497Z,18.23
2023-07-24T17:03:44.468Z,15.45
2023-07-24T17:06:11.884Z,17.10
2023-07-24T17:08:40.310Z,16.13
2023-07-24T17:11:07.737Z,15.25
2023-07-24T17:13:35.710Z,15.70
2023-07-24T17:16:03.582Z,18.52
2023-07-24T17:18:30.888Z,16.48
2023-07-24T17:20:59.743Z,13.38
2023-07-24T17:23:27.054Z,28.02
2023-07-24T17:25:54.783Z,23.33
2023-07-24T17:28:23.548Z,16.05
2023-07-24T17:30:51.963Z,16.58
2023-07-24T17:33:20.319Z,16.92
2023-07-24T17:35:47.811Z,15.77
2023-07-24T17:38:15.576Z,15.57
2023-07-24T17:40:43.383Z,16.83
2023-07-24T17:43:11.150Z,16.80
2023-07-24T17:45:38.985Z,18.38
2023-07-24T17:48:07.256Z,16.42
2023-07-24T17:50:35.810Z,25.90
2023-07-24T17:53:03.686Z,16.52
2023-07-24T17:55:31.703Z,15.63
2023-07-24T17:57:59.475Z,18.88
2023-07-24T18:00:28.195Z,16.52
2023-07-24T18:02:56.210Z,15.98
2023-07-24T18:05:23.702Z,18.73
2023-07-24T18:07:52.721Z,16.60
2023-07-24T18:10:21.411Z,15.60
2023-07-24T18:12:49.927Z,18.67
2023-07-24T18:15:17.518Z,17.85
2023-07-24T18:17:46.554Z,16.25
2023-07-24T18:20:14.934Z,18.48
2023-07-24T18:22:44.004Z,22.98
2023-07-24T18:25:11.560Z,20.90
2023-07-24T18:27:39.876Z,15.18
2023-07-24T18:30:08.239Z,25.13
2023-07-24T18:32:35.623Z,20.20
2023-07-24T18:35:03.498Z,15.98
2023-07-24T18:37:31.631Z,22.88
2023-07-24T18:39:59.247Z,21.65
2023-07-24T18:42:27.107Z,23.90
2023-07-24T18:44:54.493Z,19.83
2023-07-24T18:47:21.855Z,18.55
2023-07-24T18:49:49.131Z,22.83
2023-07-24T18:52:16.903Z,17.40
2023-07-24T18:54:45.102Z,23.27
2023-07-24T18:57:12.898Z,23.52
2023-07-24T18:59:40.983Z,20.30
2023-07-24T19:02:09.017Z,16.38
2023-07-24T19:04:36.816Z,15.82
2023-07-24T19:07:05.040Z,16.30
2023-07-24T19:09:32.577Z,14.80
2023-07-24T19:12:01.430Z,20.17
2023-07-24T19:14:29.177Z,18.17
2023-07-24T19:16:57.217Z,21.13
2023-07-24T19:19:25.127Z,19.92
2023-07-24T19:21:52.495Z,20.73
2023-07-24T19:24:19.883Z,17.35
2023-07-24T19:26:48.331Z,15.70
2023-07-24T19:29:15.737Z,16.20
2023-07-24T19:31:43.540Z,18.15
2023-07-24T19:34:11.965Z,15.40
2023-07-24T19:36:39.420Z,21.35
2023-07-24T19:39:07.365Z,20.75
2023-07-24T19:41:35.322Z,23.95
2023-07-24T19:44:03.102Z,20.73
2023-07-24T19:46:30.916Z,21.85
2023-07-24T19:49:00.512Z,20.85
2023-07-24T19:51:27.964Z,23.73
2023-07-24T19:53:56.227Z,17.52
2023-07-24T19:56:24.077Z,16.75
2023-07-24T19:58:52.288Z,24.83
2023-07-24T20:01:20.302Z,19.33
2023-07-24T20:03:48.296Z,22.83
2023-07-24T20:06:16.126Z,18.95
2023-07-24T20:08:43.474Z,23.80
2023-07-24T20:11:11.321Z,18.63
2023-07-24T20:13:39.257Z,17.50
2023-07-24T20:16:06.761Z,18.10
2023-07-24T20:18:34.248Z,22.10
2023-07-24T20:21:02.983Z,18.38
2023-07-24T20:23:31.008Z,13.90
2023-07-24T20:25:58.827Z,18.38
2023-07-24T20:28:27.293Z,15.52
2023-07-24T20:30:54.897Z,18.45
2023-07-24T20:33:22.291Z,14.15
2023-07-24T20:35:55.674Z,14.25
2023-07-24T20:38:33.380Z,14.20
2023-07-24T20:41:01.906Z,12.32
2023-07-24T20:43:30.647Z,12.00
2023-07-24T20:45:58.717Z,9.10
2023-07-24T20:48:27.513Z,12.50
2023-07-24T20:50:55.429Z,11.55
2023-07-24T20:53:22.739Z,9.60
2023-07-24T20:55:50.217Z,10.27
2023-07-24T20:58:17.609Z,8.32
2023-07-24T21:00:46.078Z,8.23
2023-07-24T21:03:13.485Z,11.93
2023-07-24T21:05:41.563Z,6.35
2023-07-24T21:08:10.230Z,6.88
2023-07-24T21:10:37.572Z,6.55
2023-07-24T21:13:04.917Z,11.85
2023-07-24T21:15:33.564Z,12.57
2023-07-24T21:18:01.973Z,8.30
2023-07-24T21:20:29.357Z,8.57
2023-07-24T21:22:56.744Z,13.45
2023-07-24T21:25:24.570Z,9.90
2023-07-24T21:27:52.428Z,9.38
2023-07-24T21:30:21.944Z,7.40
2023-07-24T21:32:49.635Z,8.25
2023-07-24T21:35:19.480Z,11.80
2023-07-24T21:37:47.207Z,11.80
2023-07-24T21:40:14.608Z,8.73
2023-07-24T21:42:42.428Z,9.50
2023-07-24T21:45:10.623Z,10.88
2023-07-24T21:47:38.000Z,8.95
2023-07-24T21:50:06.181Z,10.27
2023-07-24T21:52:33.524Z,9.35
2023-07-24T21:55:01.279Z,10.73
2023-07-24T21:57:28.890Z,8.98
2023-07-24T21:59:56.253Z,12.18
2023-07-24T22:02:23.640Z,12.38
2023-07-24T22:04:51.581Z,10.88
2023-07-24T22:07:18.887Z,13.02
2023-07-24T22:09:46.491Z,15.35
2023-07-24T22:12:14.423Z,13.38
2023-07-24T22:14:41.802Z,11.35
2023-07-24T22:17:09.634Z,11.25
2023-07-24T22:19:37.103Z,10.27
2023-07-24T22:22:04.631Z,14.02
2023-07-24T22:24:33.878Z,12.90
2023-07-24T22:27:01.550Z,9.45
2023-07-24T22:29:29.303Z,12.57
2023-07-24T22:31:57.100Z,8.50
2023-07-24T22:34:25.160Z,13.00
2023-07-24T22:36:52.450Z,15.85
2023-07-24T22:39:20.219Z,13.15
2023-07-24T22:41:47.610Z,12.20
2023-07-24T22:44:15.080Z,9.50
2023-07-24T22:46:42.438Z,10.20
2023-07-24T22:49:10.295Z,12.75
2023-07-24T22:51:37.584Z,10.60
2023-07-24T22:54:05.341Z,11.70
2023-07-24T22:56:32.759Z,12.65
2023-07-24T22:59:03.145Z,12.20
2023-07-24T23:01:32.651Z,13.50
2023-07-24T23:04:00.426Z,13.63
2023-07-24T23:06:27.826Z,16.83
2023-07-24T23:08:56.064Z,9.60
2023-07-24T23:11:23.456Z,11.95
2023-07-24T23:13:51.542Z,13.82
2023-07-24T23:16:18.950Z,15.00
2023-07-24T23:18:46.258Z,11.85
2023-07-24T23:21:13.623Z,13.52
2023-07-24T23:23:40.979Z,14.75
2023-07-24T23:26:08.376Z,11.30
2023-07-24T23:28:36.215Z,16.70
2023-07-24T23:31:04.954Z,11.82
2023-07-24T23:33:36.616Z,13.30
2023-07-24T23:36:08.137Z,11.40
2023-07-24T23:38:37.584Z,14.32
2023-07-24T23:41:06.357Z,18.08
2023-07-24T23:43:35.152Z,15.32
2023-07-24T23:46:10.811Z,15.85
2023-07-24T23:48:38.518Z,10.25
2023-07-24T23:51:06.440Z,13.95
2023-07-24T23:53:33.820Z,12.60
2023-07-24T23:56:01.108Z,15.95
2023-07-24T23:58:28.500Z,12.55
